createdAt,value
2023-03-06T00:01:03.607Z,35.77
2023-03-06T00:03:30.357Z,36.48
2023-03-06T00:05:57.624Z,37.23
2023-03-06T00:08:24.859Z,35.62
2023-03-06T00:10:51.544Z,36.53
2023-03-06T00:13:19.938Z,36.75
2023-03-06T00:15:46.924Z,36.96
2023-03-06T00:18:13.663Z,36.66
2023-03-06T00:20:40.871Z,36.48
2023-03-06T00:23:08.432Z,36.20
2023-03-06T00:25:35.143Z,36.31
2023-03-06T00:28:01.801Z,36.05
2023-03-06T00:30:28.489Z,35.71
2023-03-06T00:32:55.161Z,35.63
2023-03-06T00:35:21.897Z,36.18
2023-03-06T00:37:48.579Z,35.99
2023-03-06T00:40:16.975Z,36.10
2023-03-06T00:42:43.636Z,36.08
2023-03-06T00:45:10.442Z,35.17
2023-03-06T00:47:37.149Z,35.70
2023-03-06T00:50:04.640Z,34.72
2023-03-06T00:52:31.347Z,35.35
2023-03-06T00:54:58.015Z,36.26
2023-03-06T00:57:24.650Z,35.90
2023-03-06T00:59:51.287Z,35.85
2023-03-06T01:02:18.025Z,36.59
2023-03-06T01:04:44.685Z,35.80
2023-03-06T01:07:11.349Z,35.21
2023-03-06T01:09:37.981Z,35.10
2023-03-06T01:12:04.667Z,36.93
2023-03-06T01:14:31.307Z,36.83
2023-03-06T01:16:57.973Z,36.45
2023-03-06T01:19:24.606Z,36.67
2023-03-06T01:21:51.276Z,36.01
2023-03-06T01:24:18.029Z,36.29
2023-03-06T01:26:44.652Z,37.38
2023-03-06T01:29:12.446Z,36.15
2023-03-06T01:31:39.141Z,36.08
2023-03-06T01:34:05.853Z,36.40
2023-03-06T01:36:32.512Z,37.68
2023-03-06T01:38:59.163Z,38.00
2023-03-06T01:41:25.785Z,38.11
2023-03-06T01:43:52.434Z,37.98
2023-03-06T01:46:42.438Z,38.07
2023-03-06T01:49:11.733Z,37.21
2023-03-06T01:51:56.404Z,38.60
2023-03-06T01:54:55.636Z,38.33
2023-03-06T01:57:26.312Z,37.56
2023-03-06T01:59:58.785Z,38.81
2023-03-06T02:02:25.446Z,39.48
2023-03-06T02:04:52.114Z,38.20
2023-03-06T02:07:19.389Z,37.52
2023-03-06T02:09:46.038Z,38.78
2023-03-06T02:12:14.247Z,37.28
2023-03-06T02:14:40.898Z,37.78
2023-03-06T02:17:07.770Z,39.00
2023-03-06T02:19:54.508Z,39.41
2023-03-06T02:22:21.280Z,38.38
2023-03-06T02:25:02.500Z,38.46
2023-03-06T02:27:29.175Z,39.88
2023-03-06T02:29:55.810Z,37.65
2023-03-06T02:32:22.486Z,38.13
2023-03-06T02:34:54.553Z,38.36
2023-03-06T02:37:21.327Z,38.77
2023-03-06T02:39:50.052Z,38.18
2023-03-06T02:42:24.869Z,38.73
2023-03-06T02:44:52.342Z,39.05
2023-03-06T02:47:18.997Z,39.67
2023-03-06T02:49:45.657Z,38.33
2023-03-06T02:52:12.297Z,38.29
2023-03-06T02:54:38.946Z,37.99
2023-03-06T02:57:05.569Z,37.20
2023-03-06T02:59:32.204Z,36.79
2023-03-06T03:01:58.842Z,37.30
2023-03-06T03:04:25.547Z,37.68
2023-03-06T03:06:52.220Z,38.11
2023-03-06T03:09:18.879Z,37.81
2023-03-06T03:11:45.562Z,38.34
2023-03-06T03:14:12.191Z,37.97
2023-03-06T03:16:39.269Z,36.45
2023-03-06T03:19:06.004Z,37.41
2023-03-06T03:21:32.679Z,38.10
2023-03-06T03:23:59.330Z,37.92
2023-03-06T03:26:26.010Z,36.54
2023-03-06T03:28:52.639Z,36.00
2023-03-06T03:31:19.362Z,37.24
2023-03-06T03:33:46.058Z,38.37
2023-03-06T03:36:12.712Z,38.14
2023-03-06T03:38:39.344Z,39.29
2023-03-06T03:41:05.994Z,38.66
2023-03-06T03:43:32.630Z,38.88
2023-03-06T03:45:59.282Z,38.89
2023-03-06T03:48:25.932Z,38.10
2023-03-06T03:50:52.593Z,37.63
2023-03-06T03:53:19.239Z,38.23
2023-03-06T03:55:48.608Z,38.41
2023-03-06T03:58:15.320Z,38.55
2023-03-06T04:00:41.973Z,37.75
2023-03-06T04:03:08.598Z,36.81
2023-03-06T04:05:35.241Z,36.66
2023-03-06T04:08:01.874Z,38.11
2023-03-06T04:10:28.525Z,38.19
2023-03-06T04:12:55.165Z,39.24
2023-03-06T04:15:21.835Z,39.31
2023-03-06T04:17:48.492Z,38.50
2023-03-06T04:20:15.131Z,37.85
2023-03-06T04:22:41.761Z,38.74
2023-03-06T04:25:08.799Z,38.69
2023-03-06T04:27:35.444Z,39.38
2023-03-06T04:30:02.110Z,38.28
2023-03-06T04:32:28.761Z,38.28
2023-03-06T04:34:55.500Z,37.66
2023-03-06T04:37:23.716Z,37.66
2023-03-06T04:39:50.399Z,36.49
2023-03-06T04:42:17.046Z,38.10
2023-03-06T04:44:43.850Z,37.14
2023-03-06T04:47:10.546Z,36.67
2023-03-06T04:49:37.190Z,36.88
2023-03-06T04:52:03.910Z,37.13
2023-03-06T04:54:30.573Z,36.53
2023-03-06T04:56:57.255Z,38.14
2023-03-06T04:59:23.971Z,37.76
2023-03-06T05:01:50.720Z,37.12
2023-03-06T05:04:17.367Z,36.54
2023-03-06T05:06:44.060Z,36.69
2023-03-06T05:09:10.707Z,37.40
2023-03-06T05:11:37.355Z,36.50
2023-03-06T05:14:03.997Z,37.02
2023-03-06T05:16:30.759Z,35.74
2023-03-06T05:18:57.476Z,36.24
2023-03-06T05:21:24.115Z,35.72
2023-03-06T05:23:50.762Z,36.33
2023-03-06T05:26:17.391Z,36.41
2023-03-06T05:28:44.061Z,35.79
2023-03-06T05:31:10.704Z,36.72
2023-03-06T05:33:37.360Z,36.89
2023-03-06T05:36:04.287Z,37.70
2023-03-06T05:38:31.649Z,38.69
2023-03-06T05:40:58.536Z,38.26
2023-03-06T05:43:25.241Z,37.04
2023-03-06T05:45:51.953Z,36.35
2023-03-06T05:48:18.662Z,36.58
2023-03-06T05:50:45.348Z,36.38
2023-03-06T05:53:11.980Z,36.67
2023-03-06T05:55:41.640Z,35.81
2023-03-06T05:58:08.316Z,36.74
2023-03-06T06:00:35.530Z,36.90
2023-03-06T06:03:02.543Z,35.69
2023-03-06T06:05:29.207Z,35.83
2023-03-06T06:07:55.903Z,36.37
2023-03-06T06:10:22.555Z,36.56
2023-03-06T06:12:49.217Z,36.34
2023-03-06T06:15:16.064Z,36.85
2023-03-06T06:17:42.839Z,36.34
2023-03-06T06:20:09.865Z,35.45
2023-03-06T06:22:37.232Z,35.42
2023-03-06T06:25:04.950Z,34.38
2023-03-06T06:27:31.858Z,35.76
2023-03-06T06:29:58.539Z,35.52
2023-03-06T06:32:25.269Z,35.61
2023-03-06T06:34:52.034Z,33.54
2023-03-06T06:37:18.691Z,34.20
2023-03-06T06:39:45.368Z,34.58
2023-03-06T06:42:29.322Z,34.28
2023-03-06T06:44:58.263Z,34.91
2023-03-06T06:47:25.907Z,35.45
2023-03-06T06:49:53.469Z,35.47
2023-03-06T06:52:20.282Z,34.68
2023-03-06T06:54:46.937Z,35.18
2023-03-06T06:57:13.618Z,35.49
2023-03-06T06:59:40.276Z,35.60
2023-03-06T07:02:06.944Z,34.65
2023-03-06T07:04:33.698Z,35.41
2023-03-06T07:07:00.377Z,36.34
2023-03-06T07:09:27.060Z,41.14
2023-03-06T07:11:53.714Z,36.83
2023-03-06T07:14:20.384Z,37.09
2023-03-06T07:16:47.136Z,36.17
2023-03-06T07:19:13.790Z,37.50
2023-03-06T07:21:40.504Z,38.20
2023-03-06T07:24:07.285Z,39.11
2023-03-06T07:26:34.898Z,37.46
2023-03-06T07:29:02.180Z,37.89
2023-03-06T07:31:29.045Z,37.93
2023-03-06T07:33:55.744Z,37.74
2023-03-06T07:36:23.039Z,36.78
2023-03-06T07:38:49.914Z,33.39
2023-03-06T07:41:16.708Z,31.20
2023-03-06T07:43:44.038Z,30.24
2023-03-06T07:46:10.903Z,28.48
2023-03-06T07:48:37.710Z,28.51
2023-03-06T07:51:08.984Z,28.22
2023-03-06T07:53:35.686Z,26.77
2023-03-06T07:56:04.119Z,27.26
2023-03-06T07:58:30.753Z,28.09
2023-03-06T08:00:57.512Z,27.75
2023-03-06T08:03:24.192Z,26.71
2023-03-06T08:05:50.909Z,26.69
2023-03-06T08:08:17.567Z,26.34
2023-03-06T08:10:47.826Z,26.31
2023-03-06T08:13:14.500Z,26.04
2023-03-06T08:15:41.204Z,25.31
2023-03-06T08:18:07.906Z,25.36
2023-03-06T08:20:34.576Z,25.21
2023-03-06T08:23:01.269Z,24.88
2023-03-06T08:25:27.908Z,26.36
2023-03-06T08:27:54.581Z,25.21
2023-03-06T08:30:21.286Z,25.96
2023-03-06T08:32:47.936Z,25.21
2023-03-06T08:35:14.817Z,25.94
2023-03-06T08:37:41.512Z,25.80
2023-03-06T08:40:08.849Z,25.69
2023-03-06T08:42:35.538Z,25.89
2023-03-06T08:45:02.230Z,26.85
2023-03-06T08:47:30.010Z,30.51
2023-03-06T08:49:57.774Z,29.09
2023-03-06T08:52:25.502Z,29.30
2023-03-06T08:54:52.234Z,28.22
2023-03-06T08:57:18.961Z,29.28
2023-03-06T08:59:45.613Z,29.71
2023-03-06T09:02:12.657Z,29.96
2023-03-06T09:04:39.401Z,31.42
2023-03-06T09:07:06.052Z,32.80
2023-03-06T09:09:32.896Z,32.06
2023-03-06T09:11:59.560Z,31.93
2023-03-06T09:14:26.269Z,33.00
2023-03-06T09:16:53.090Z,33.46
2023-03-06T09:19:19.821Z,35.50
2023-03-06T09:21:46.519Z,34.68
2023-03-06T09:24:19.534Z,33.28
2023-03-06T09:26:47.675Z,31.63
2023-03-06T09:29:15.510Z,30.45
2023-03-06T09:31:42.172Z,29.51
2023-03-06T09:34:08.848Z,28.08
2023-03-06T09:36:49.253Z,28.06
2023-03-06T09:39:20.331Z,28.35
2023-03-06T09:41:47.020Z,29.07
2023-03-06T09:44:15.839Z,30.22
2023-03-06T09:46:54.534Z,29.81
2023-03-06T09:49:33.369Z,30.46
2023-03-06T09:52:05.031Z,30.12
2023-03-06T09:54:43.800Z,31.58
2023-03-06T09:57:17.502Z,30.75
2023-03-06T09:59:45.318Z,31.03
2023-03-06T10:02:14.949Z,31.66
2023-03-06T10:04:43.151Z,33.52
2023-03-06T10:07:20.451Z,32.75
2023-03-06T10:10:07.416Z,32.37
2023-03-06T10:12:43.451Z,33.94
2023-03-06T10:15:18.456Z,34.14
2023-03-06T10:17:45.178Z,33.32
2023-03-06T10:20:23.355Z,34.03
2023-03-06T10:23:12.104Z,32.73
2023-03-06T10:25:46.497Z,34.56
2023-03-06T10:28:18.290Z,35.41
2023-03-06T10:31:01.571Z,35.65
2023-03-06T10:33:43.469Z,36.10
2023-03-06T10:36:15.635Z,35.39
2023-03-06T10:38:42.344Z,35.81
2023-03-06T10:41:11.832Z,36.16
2023-03-06T10:43:43.126Z,35.74
2023-03-06T10:46:11.696Z,34.96
2023-03-06T10:48:40.980Z,35.04
2023-03-06T10:51:18.608Z,35.08
2023-03-06T10:53:49.156Z,36.00
2023-03-06T10:56:26.427Z,35.73
2023-03-06T10:59:18.266Z,34.94
2023-03-06T11:01:48.921Z,35.89
2023-03-06T11:04:31.427Z,36.47
2023-03-06T11:07:14.692Z,37.01
2023-03-06T11:09:56.520Z,37.18
2023-03-06T11:12:30.472Z,37.50
2023-03-06T11:15:23.907Z,37.13
2023-03-06T11:18:04.875Z,38.46
2023-03-06T11:20:51.068Z,36.30
2023-03-06T11:23:29.470Z,38.00
2023-03-06T11:26:17.333Z,37.10
2023-03-06T11:28:48.731Z,37.38
2023-03-06T11:31:26.149Z,37.94
2023-03-06T11:33:56.769Z,36.67
2023-03-06T11:36:26.412Z,37.48
2023-03-06T11:38:53.636Z,37.82
2023-03-06T11:41:42.598Z,38.55
2023-03-06T11:44:20.119Z,37.55
2023-03-06T11:46:49.599Z,37.28
2023-03-06T11:49:24.469Z,36.75
2023-03-06T11:51:54.210Z,35.22
2023-03-06T11:54:21.791Z,35.69
2023-03-06T11:57:27.559Z,36.43
2023-03-06T12:00:18.260Z,36.75
2023-03-06T12:03:07.226Z,36.69
2023-03-06T12:05:46.702Z,34.16
2023-03-06T12:08:17.102Z,34.11
2023-03-06T12:10:57.815Z,36.48
2023-03-06T12:13:31.484Z,34.73
2023-03-06T12:16:12.378Z,35.50
2023-03-06T12:18:51.096Z,36.52
2023-03-06T12:21:43.083Z,38.34
2023-03-06T12:24:25.154Z,37.31
2023-03-06T12:27:20.955Z,36.70
2023-03-06T12:30:10.349Z,34.05
2023-03-06T12:32:46.471Z,31.95
2023-03-06T12:35:22.503Z,33.39
2023-03-06T12:37:55.220Z,32.88
2023-03-06T12:40:24.334Z,33.07
2023-03-06T12:43:22.996Z,33.84
2023-03-06T12:45:50.042Z,33.64
2023-03-06T12:48:19.203Z,33.20
2023-03-06T12:50:45.921Z,34.06
2023-03-06T12:53:30.070Z,35.21
2023-03-06T12:55:57.645Z,34.45
2023-03-06T12:58:30.243Z,33.70
2023-03-06T13:01:04.142Z,36.23
2023-03-06T13:04:01.125Z,36.78
2023-03-06T13:06:52.592Z,36.92
2023-03-06T13:09:22.691Z,37.39
2023-03-06T13:12:08.039Z,36.89
2023-03-06T13:14:54.606Z,37.10
2023-03-06T13:17:24.667Z,36.86
2023-03-06T13:20:35.288Z,36.34
2023-03-06T13:23:34.197Z,36.14
2023-03-06T13:26:03.961Z,35.03
2023-03-06T13:28:46.367Z,35.11
2023-03-06T13:31:28.193Z,34.81
2023-03-06T13:34:33.839Z,34.59
2023-03-06T13:37:19.117Z,33.78
2023-03-06T13:39:57.859Z,34.53
2023-03-06T13:42:37.572Z,34.72
2023-03-06T13:45:23.506Z,35.30
2023-03-06T13:50:42.653Z,33.89
2023-03-06T13:53:16.694Z,33.06
2023-03-06T13:56:05.086Z,32.86
2023-03-06T13:58:44.843Z,31.44
2023-03-06T14:01:17.149Z,31.39
2023-03-06T14:04:05.660Z,31.15
2023-03-06T14:06:35.316Z,32.34
2023-03-06T14:09:05.531Z,30.92
2023-03-06T14:11:32.338Z,30.53
2023-03-06T14:13:59.042Z,30.50
2023-03-06T14:16:29.194Z,31.73
2023-03-06T14:18:59.303Z,29.95
2023-03-06T14:21:39.146Z,30.94
2023-03-06T14:24:05.908Z,30.92
2023-03-06T14:26:34.357Z,30.30
2023-03-06T14:29:01.962Z,29.71
2023-03-06T14:31:31.006Z,28.56
2023-03-06T14:34:05.063Z,30.72
2023-03-06T14:36:32.383Z,29.73
2023-03-06T14:39:03.419Z,29.35
2023-03-06T14:41:31.535Z,28.11
2023-03-06T14:44:14.347Z,29.45
2023-03-06T14:46:41.054Z,29.87
2023-03-06T14:49:07.994Z,29.66
2023-03-06T14:51:41.763Z,29.69
2023-03-06T14:54:13.069Z,29.73
2023-03-06T14:56:40.561Z,29.12
2023-03-06T14:59:08.714Z,28.57
2023-03-06T15:01:37.452Z,28.99
2023-03-06T15:04:14.855Z,28.09
2023-03-06T15:06:42.146Z,28.46
2023-03-06T15:09:22.027Z,28.06
2023-03-06T15:12:00.445Z,27.82
2023-03-06T15:14:37.009Z,27.27
2023-03-06T15:17:21.706Z,27.77
2023-03-06T15:19:52.958Z,26.89
2023-03-06T15:22:27.406Z,26.65
2023-03-06T15:24:54.382Z,27.21
2023-03-06T15:27:25.999Z,26.92
2023-03-06T15:29:52.659Z,26.89
2023-03-06T15:32:25.297Z,27.22
2023-03-06T15:35:22.808Z,26.69
2023-03-06T15:37:52.289Z,26.86
2023-03-06T15:40:19.929Z,27.37
2023-03-06T15:42:46.668Z,27.24
2023-03-06T15:45:15.503Z,26.56
2023-03-06T15:47:43.093Z,26.95
2023-03-06T15:50:26.303Z,26.23
2023-03-06T15:52:53.160Z,26.40
2023-03-06T15:55:24.509Z,25.36
2023-03-06T15:57:56.755Z,24.83
2023-03-06T16:00:28.477Z,25.13
2023-03-06T16:02:56.106Z,26.03
2023-03-06T16:05:22.779Z,25.25
2023-03-06T16:07:49.521Z,24.85
2023-03-06T16:10:17.787Z,24.11
2023-03-06T16:12:48.386Z,23.10
2023-03-06T16:15:17.853Z,23.39
2023-03-06T16:17:44.581Z,23.77
2023-03-06T16:20:20.510Z,23.50
2023-03-06T16:22:47.722Z,23.51
2023-03-06T16:25:15.569Z,23.41
2023-03-06T16:27:43.548Z,24.06
2023-03-06T16:30:17.572Z,24.10
2023-03-06T16:32:44.281Z,24.38
2023-03-06T16:35:11.724Z,22.96
2023-03-06T16:37:39.409Z,24.61
2023-03-06T16:40:13.031Z,25.09
2023-03-06T16:42:39.724Z,25.49
2023-03-06T16:45:06.918Z,24.74
2023-03-06T16:47:33.628Z,25.57
2023-03-06T16:50:00.899Z,25.04
2023-03-06T16:52:27.875Z,25.19
2023-03-06T16:54:54.560Z,25.47
2023-03-06T16:57:21.243Z,25.84
2023-03-06T16:59:47.927Z,25.41
2023-03-06T17:02:14.684Z,25.18
2023-03-06T17:04:42.307Z,24.26
2023-03-06T17:07:09.890Z,24.86
2023-03-06T17:09:37.336Z,24.75
2023-03-06T17:12:04.179Z,24.86
2023-03-06T17:14:33.694Z,24.30
2023-03-06T17:17:01.313Z,25.13
2023-03-06T17:19:29.867Z,25.17
2023-03-06T17:21:58.485Z,24.72
2023-03-06T17:24:26.083Z,26.10
2023-03-06T17:26:53.670Z,24.48
2023-03-06T17:29:20.748Z,27.25
2023-03-06T17:31:47.450Z,26.78
2023-03-06T17:34:14.474Z,25.69
2023-03-06T17:36:42.062Z,25.59
2023-03-06T17:39:09.687Z,25.35
2023-03-06T17:41:36.676Z,24.90
2023-03-06T17:44:03.429Z,24.20
2023-03-06T17:46:30.582Z,23.21
2023-03-06T17:48:57.787Z,22.36
2023-03-06T17:51:26.657Z,24.28
2023-03-06T17:53:55.239Z,30.00
2023-03-06T17:56:23.865Z,24.83
2023-03-06T17:58:54.469Z,24.47
2023-03-06T18:01:23.148Z,32.37
2023-03-06T18:03:52.356Z,31.41
2023-03-06T18:06:19.609Z,26.90
2023-03-06T18:08:46.519Z,25.38
2023-03-06T18:11:13.453Z,24.70
2023-03-06T18:13:41.460Z,23.58
2023-03-06T18:16:09.755Z,23.67
2023-03-06T18:18:38.328Z,23.15
2023-03-06T18:21:10.846Z,23.92
2023-03-06T18:23:39.567Z,25.12
2023-03-06T18:31:41.744Z,23.98
2023-03-06T18:34:16.396Z,24.42
2023-03-06T18:36:46.118Z,23.56
2023-03-06T18:39:13.719Z,22.88
2023-03-06T18:41:41.318Z,23.56
2023-03-06T18:44:11.281Z,22.91
2023-03-06T18:46:40.384Z,21.97
2023-03-06T18:49:07.390Z,20.99
2023-03-06T18:51:35.108Z,20.55
2023-03-06T18:54:05.088Z,19.96
2023-03-06T18:56:33.250Z,19.78
2023-03-06T18:59:06.916Z,19.47
2023-03-06T19:01:35.488Z,18.43
2023-03-06T19:04:03.206Z,18.28
2023-03-06T19:06:30.694Z,17.58
2023-03-06T19:08:59.945Z,16.31
2023-03-06T19:11:26.651Z,16.14
2023-03-06T19:13:55.502Z,15.51
2023-03-06T19:16:24.169Z,16.41
2023-03-06T19:18:51.722Z,17.02
2023-03-06T19:21:20.423Z,16.84
2023-03-06T19:23:49.052Z,15.46
2023-03-06T19:26:17.641Z,16.28
2023-03-06T19:28:45.265Z,16.23
2023-03-06T19:31:19.656Z,15.81
2023-03-06T19:33:46.938Z,15.69
2023-03-06T19:36:14.122Z,15.46
2023-03-06T19:38:41.211Z,16.55
2023-03-06T19:41:13.301Z,15.72
2023-03-06T19:43:40.933Z,15.91
2023-03-06T19:46:12.588Z,16.13
2023-03-06T19:48:40.184Z,15.70
2023-03-06T19:51:07.025Z,16.95
2023-03-06T19:53:33.888Z,17.48
2023-03-06T19:56:11.802Z,16.60
2023-03-06T19:58:38.481Z,16.92
2023-03-06T20:01:06.572Z,16.52
2023-03-06T20:03:33.257Z,16.73
2023-03-06T20:06:00.231Z,17.06
2023-03-06T20:08:26.899Z,18.52
2023-03-06T20:10:53.563Z,16.69
2023-03-06T20:13:20.243Z,15.51
2023-03-06T20:15:46.959Z,14.54
2023-03-06T20:18:13.733Z,14.64
2023-03-06T20:20:40.386Z,14.20
2023-03-06T20:23:07.047Z,14.52
2023-03-06T20:25:35.397Z,14.37
2023-03-06T20:28:02.195Z,13.93
2023-03-06T20:30:37.521Z,13.41
2023-03-06T20:33:04.908Z,14.11
2023-03-06T20:35:31.619Z,16.24
2023-03-06T20:37:58.408Z,14.91
2023-03-06T20:40:25.131Z,15.77
2023-03-06T20:42:51.858Z,16.03
2023-03-06T20:45:18.557Z,15.66
2023-03-06T20:47:45.237Z,14.76
2023-03-06T20:50:11.907Z,14.05
2023-03-06T20:52:38.619Z,14.42
2023-03-06T20:55:05.798Z,14.69
2023-03-06T20:57:32.445Z,14.50
2023-03-06T20:59:59.146Z,14.67
2023-03-06T21:02:25.860Z,14.40
2023-03-06T21:04:52.559Z,15.22
2023-03-06T21:07:19.384Z,15.67
2023-03-06T21:09:46.078Z,14.69
2023-03-06T21:12:12.752Z,14.86
2023-03-06T21:14:39.436Z,16.06
2023-03-06T21:17:06.120Z,15.14
2023-03-06T21:19:32.791Z,14.68
2023-03-06T21:21:59.467Z,14.19
2023-03-06T21:24:26.183Z,14.40
2023-03-06T21:26:52.864Z,14.67
2023-03-06T21:29:19.510Z,14.51
2023-03-06T21:31:46.219Z,14.41
2023-03-06T21:34:13.083Z,14.32
2023-03-06T21:36:39.758Z,14.31
2023-03-06T21:39:06.536Z,14.18
2023-03-06T21:41:33.357Z,14.70
2023-03-06T21:44:01.446Z,14.88
2023-03-06T21:46:28.181Z,15.10
2023-03-06T21:48:54.858Z,14.86
2023-03-06T21:51:21.789Z,15.03
2023-03-06T21:53:48.459Z,14.69
2023-03-06T21:56:16.614Z,14.94
2023-03-06T21:58:43.421Z,14.89
2023-03-06T22:01:11.347Z,14.28
2023-03-06T22:03:38.104Z,14.64
2023-03-06T22:06:11.576Z,14.67
2023-03-06T22:08:38.362Z,14.74
2023-03-06T22:11:07.004Z,14.73
2023-03-06T22:13:33.704Z,14.68
2023-03-06T22:16:00.338Z,14.36
2023-03-06T22:18:26.993Z,14.20
2023-03-06T22:20:53.683Z,14.35
2023-03-06T22:23:20.355Z,15.07
2023-03-06T22:25:47.028Z,14.65
2023-03-06T22:28:13.693Z,14.83
2023-03-06T22:30:40.341Z,14.36
2023-03-06T22:33:06.981Z,13.84
2023-03-06T22:35:33.656Z,14.16
2023-03-06T22:38:00.318Z,14.28
2023-03-06T22:40:26.997Z,14.77
2023-03-06T22:42:53.653Z,14.14
2023-03-06T22:45:20.301Z,13.82
2023-03-06T22:47:46.980Z,14.07
2023-03-06T22:50:13.725Z,14.19
2023-03-06T22:52:40.386Z,13.96
2023-03-06T22:55:07.343Z,13.82
2023-03-06T22:57:34.037Z,13.80
2023-03-06T23:00:00.705Z,13.40
2023-03-06T23:02:32.721Z,13.97
2023-03-06T23:04:59.361Z,13.94
2023-03-06T23:07:26.022Z,14.13
2023-03-06T23:09:52.658Z,14.10
2023-03-06T23:12:19.343Z,14.09
2023-03-06T23:14:46.198Z,14.57
2023-03-06T23:17:12.913Z,14.30
2023-03-06T23:19:39.569Z,13.62
2023-03-06T23:22:06.244Z,13.97
2023-03-06T23:24:34.786Z,13.89
2023-03-06T23:27:03.156Z,13.46
2023-03-06T23:29:29.847Z,13.33
2023-03-06T23:31:56.499Z,14.30
2023-03-06T23:34:23.152Z,14.01
2023-03-06T23:36:49.814Z,14.40
2023-03-06T23:39:16.520Z,14.50
2023-03-06T23:41:43.188Z,13.62
2023-03-06T23:44:09.833Z,13.99
2023-03-06T23:46:36.614Z,14.61
2023-03-06T23:49:03.275Z,14.44
2023-03-06T23:51:29.906Z,14.19
2023-03-06T23:53:57.856Z,14.28
2023-03-06T23:56:25.229Z,13.83
2023-03-06T23:58:51.960Z,14.61
